createdAt,value
2022-12-08T00:01:46.180Z,7.03
2022-12-08T00:04:14.496Z,6.97
2022-12-08T00:07:02.241Z,7.33
2022-12-08T00:09:39.078Z,7.30
2022-12-08T00:12:10.199Z,7.53
2022-12-08T00:14:40.011Z,7.43
2022-12-08T00:17:09.909Z,7.17
2022-12-08T00:19:41.817Z,6.67
2022-12-08T00:22:11.345Z,6.67
2022-12-08T00:24:42.118Z,6.60
2022-12-08T00:27:11.685Z,6.60
2022-12-08T00:29:41.650Z,6.93
2022-12-08T00:32:09.741Z,6.20
2022-12-08T00:34:37.966Z,6.63
2022-12-08T00:37:08.034Z,6.83
2022-12-08T00:39:40.352Z,7.57
2022-12-08T00:42:14.144Z,6.80
2022-12-08T00:44:43.012Z,6.67
2022-12-08T00:47:11.192Z,6.43
2022-12-08T00:49:39.337Z,7.10
2022-12-08T00:52:07.959Z,7.10
2022-12-08T00:54:38.210Z,7.00
2022-12-08T00:57:07.648Z,7.60
2022-12-08T00:59:35.726Z,7.80
2022-12-08T01:02:03.792Z,6.90
2022-12-08T01:04:31.877Z,8.70
2022-12-08T01:07:00.042Z,7.97
2022-12-08T01:09:28.169Z,8.23
2022-12-08T01:11:56.635Z,8.57
2022-12-08T01:14:26.122Z,9.30
2022-12-08T01:16:54.439Z,9.47
2022-12-08T01:19:22.564Z,9.57
2022-12-08T01:21:50.683Z,10.23
2022-12-08T01:24:20.605Z,11.07
2022-12-08T01:26:49.235Z,10.57
2022-12-08T01:29:17.400Z,11.03
2022-12-08T01:31:47.141Z,11.00
2022-12-08T01:34:15.428Z,11.97
2022-12-08T01:36:44.581Z,11.63
2022-12-08T01:39:17.078Z,10.87
2022-12-08T01:41:46.216Z,12.13
2022-12-08T01:44:53.967Z,12.47
2022-12-08T01:47:25.530Z,11.83
2022-12-08T01:49:53.685Z,10.83
2022-12-08T01:52:26.390Z,11.60
2022-12-08T01:54:59.014Z,11.67
2022-12-08T01:57:31.796Z,12.53
2022-12-08T02:00:05.191Z,11.90
2022-12-08T02:02:43.095Z,10.80
2022-12-08T02:05:11.604Z,10.87
2022-12-08T02:07:40.165Z,11.43
2022-12-08T02:10:09.323Z,10.60
2022-12-08T02:12:37.422Z,11.10
2022-12-08T02:15:06.668Z,10.17
2022-12-08T02:17:51.109Z,10.23
2022-12-08T02:20:31.398Z,11.33
2022-12-08T02:23:07.646Z,11.30
2022-12-08T02:25:51.001Z,10.90
2022-12-08T02:28:39.664Z,10.53
2022-12-08T02:31:20.440Z,10.50
2022-12-08T02:34:10.640Z,9.57
2022-12-08T02:36:45.278Z,10.03
2022-12-08T02:39:25.168Z,9.33
2022-12-08T02:41:58.319Z,8.70
2022-12-08T02:44:31.464Z,9.33
2022-12-08T02:47:06.757Z,8.80
2022-12-08T02:49:37.044Z,9.57
2022-12-08T02:52:29.177Z,8.57
2022-12-08T02:55:03.266Z,8.00
2022-12-08T02:57:40.683Z,7.77
2022-12-08T03:05:53.617Z,8.60
2022-12-08T03:08:28.499Z,8.23
2022-12-08T03:11:02.706Z,7.97
2022-12-08T03:13:36.428Z,7.90
2022-12-08T03:16:08.356Z,7.83
2022-12-08T03:18:43.938Z,7.63
2022-12-08T03:21:15.932Z,7.60
2022-12-08T03:23:47.690Z,6.30
2022-12-08T03:26:20.798Z,7.23
2022-12-08T03:28:48.988Z,6.53
2022-12-08T03:31:18.769Z,6.00
2022-12-08T03:33:53.031Z,6.13
2022-12-08T03:36:21.872Z,6.03
2022-12-08T03:38:53.843Z,5.53
2022-12-08T03:41:23.499Z,5.47
2022-12-08T03:43:52.871Z,5.30
2022-12-08T03:48:49.287Z,5.47
2022-12-08T03:51:18.043Z,4.90
2022-12-08T03:53:47.154Z,4.87
2022-12-08T03:56:23.797Z,4.70
2022-12-08T03:58:51.823Z,4.43
2022-12-08T04:01:20.053Z,4.10
2022-12-08T04:03:48.566Z,4.03
2022-12-08T04:06:16.800Z,3.60
2022-12-08T04:08:45.128Z,3.13
2022-12-08T04:11:13.635Z,3.23
2022-12-08T04:13:43.946Z,3.10
2022-12-08T04:16:16.935Z,2.57
2022-12-08T04:18:45.077Z,2.90
2022-12-08T04:21:13.537Z,2.77
2022-12-08T04:23:41.862Z,2.70
2022-12-08T04:26:10.340Z,3.10
2022-12-08T04:28:38.412Z,3.10
2022-12-08T04:31:08.284Z,3.07
2022-12-08T04:33:36.500Z,2.63
2022-12-08T04:36:05.091Z,2.83
2022-12-08T04:38:33.332Z,2.83
2022-12-08T04:41:01.572Z,2.67
2022-12-08T04:43:29.670Z,3.03
2022-12-08T04:45:57.736Z,3.33
2022-12-08T04:48:27.143Z,3.00
2022-12-08T04:50:55.178Z,2.90
2022-12-08T04:53:23.348Z,2.80
2022-12-08T04:55:51.585Z,2.20
2022-12-08T04:58:20.793Z,2.13
2022-12-08T05:00:49.307Z,2.60
2022-12-08T05:03:17.811Z,2.20
2022-12-08T05:05:47.475Z,2.67
2022-12-08T05:08:15.680Z,2.23
2022-12-08T05:10:43.803Z,2.40
2022-12-08T05:13:11.875Z,1.87
2022-12-08T05:15:39.876Z,2.50
2022-12-08T05:18:08.111Z,1.87
2022-12-08T05:20:36.796Z,2.00
2022-12-08T05:23:06.218Z,1.70
2022-12-08T05:25:34.306Z,1.70
2022-12-08T05:28:32.926Z,1.87
2022-12-08T05:30:50.533Z,1.90
2022-12-08T05:33:18.703Z,1.60
2022-12-08T05:35:46.719Z,1.50
2022-12-08T05:38:16.125Z,1.27
2022-12-08T05:40:44.418Z,1.30
2022-12-08T05:43:12.635Z,0.97
2022-12-08T05:45:40.762Z,0.60
2022-12-08T05:48:08.927Z,0.57
2022-12-08T05:50:36.968Z,0.60
2022-12-08T05:53:05.052Z,0.60
2022-12-08T05:55:34.457Z,0.60
2022-12-08T05:58:07.636Z,0.70
2022-12-08T06:00:36.194Z,0.63
2022-12-08T06:03:04.467Z,0.70
2022-12-08T06:05:33.701Z,0.90
2022-12-08T06:08:01.864Z,0.73
2022-12-08T06:10:30.580Z,1.00
2022-12-08T06:12:59.990Z,1.00
2022-12-08T06:15:28.480Z,0.90
2022-12-08T06:17:56.568Z,1.70
2022-12-08T06:20:24.588Z,1.27
2022-12-08T06:22:52.690Z,1.50
2022-12-08T06:25:20.762Z,1.90
2022-12-08T06:27:48.896Z,1.60
2022-12-08T06:30:18.917Z,1.80
2022-12-08T06:32:47.150Z,1.80
2022-12-08T06:35:15.248Z,2.27
2022-12-08T06:37:43.287Z,2.73
2022-12-08T06:40:12.279Z,2.47
2022-12-08T06:42:47.052Z,2.40
2022-12-08T06:45:17.266Z,2.50
2022-12-08T06:47:46.840Z,2.27
2022-12-08T06:50:15.369Z,2.33
2022-12-08T06:52:54.371Z,2.50
2022-12-08T06:55:57.461Z,2.30
2022-12-08T06:58:15.820Z,2.63
2022-12-08T07:00:44.134Z,2.03
2022-12-08T07:03:14.810Z,2.53
2022-12-08T07:05:42.865Z,2.20
2022-12-08T07:08:11.128Z,2.23
2022-12-08T07:10:39.379Z,1.93
2022-12-08T07:13:07.364Z,1.67
2022-12-08T07:15:35.456Z,2.40
2022-12-08T07:18:03.520Z,2.23
2022-12-08T07:20:32.970Z,1.93
2022-12-08T07:23:01.010Z,2.33
2022-12-08T07:25:29.020Z,2.63
2022-12-08T07:27:57.104Z,2.73
2022-12-08T07:30:25.324Z,2.50
2022-12-08T07:32:53.541Z,2.70
2022-12-08T07:35:23.026Z,2.53
2022-12-08T07:37:52.612Z,3.20
2022-12-08T07:40:20.703Z,2.67
2022-12-08T07:42:48.693Z,2.93
2022-12-08T07:45:16.887Z,2.80
2022-12-08T07:47:44.943Z,2.67
2022-12-08T07:50:13.015Z,2.97
2022-12-08T07:52:41.105Z,2.93
2022-12-08T07:55:11.190Z,2.90
2022-12-08T07:57:39.207Z,2.40
2022-12-08T08:00:08.598Z,3.00
2022-12-08T08:02:36.921Z,2.50
2022-12-08T08:05:05.383Z,2.87
2022-12-08T08:07:33.469Z,3.10
2022-12-08T08:10:01.813Z,3.33
2022-12-08T08:12:32.548Z,2.80
2022-12-08T08:15:01.056Z,2.67
2022-12-08T08:17:29.663Z,2.83
2022-12-08T08:19:58.211Z,3.20
2022-12-08T08:22:26.378Z,3.07
2022-12-08T08:24:55.040Z,3.03
2022-12-08T08:27:23.160Z,3.20
2022-12-08T08:29:52.564Z,3.00
2022-12-08T08:32:20.617Z,3.50
2022-12-08T08:34:48.589Z,3.37
2022-12-08T08:37:16.679Z,3.23
2022-12-08T08:39:44.718Z,2.83
2022-12-08T08:42:12.746Z,2.73
2022-12-08T08:44:40.747Z,2.50
2022-12-08T08:47:10.261Z,2.60
2022-12-08T08:49:38.539Z,2.63
2022-12-08T08:52:07.360Z,2.70
2022-12-08T08:54:35.647Z,2.57
2022-12-08T08:57:04.020Z,2.27
2022-12-08T08:59:32.457Z,2.20
2022-12-08T09:02:00.556Z,2.50
2022-12-08T09:04:30.140Z,2.30
2022-12-08T09:06:58.334Z,2.30
2022-12-08T09:09:26.450Z,2.43
2022-12-08T09:11:55.665Z,2.43
2022-12-08T09:14:24.428Z,2.47
2022-12-08T09:16:52.455Z,2.37
2022-12-08T09:19:20.506Z,2.30
2022-12-08T09:21:50.013Z,1.70
2022-12-08T09:24:18.052Z,1.90
2022-12-08T09:26:46.857Z,1.90
2022-12-08T09:29:14.886Z,1.90
2022-12-08T09:31:43.142Z,1.53
2022-12-08T09:34:12.312Z,1.70
2022-12-08T09:36:40.397Z,1.57
2022-12-08T09:39:09.915Z,1.40
2022-12-08T09:41:46.358Z,1.37
2022-12-08T09:44:41.097Z,1.20
2022-12-08T09:47:19.313Z,1.10
2022-12-08T09:49:53.696Z,1.50
2022-12-08T09:52:25.275Z,1.57
2022-12-08T09:54:55.940Z,1.43
2022-12-08T09:57:26.883Z,1.17
2022-12-08T09:59:59.441Z,1.60
2022-12-08T10:02:30.513Z,1.13
2022-12-08T10:04:59.983Z,1.20
2022-12-08T10:07:38.411Z,0.93
2022-12-08T10:10:21.674Z,1.40
2022-12-08T10:12:55.627Z,1.07
2022-12-08T10:15:43.341Z,1.20
2022-12-08T10:18:16.264Z,0.60
2022-12-08T10:20:46.218Z,0.80
2022-12-08T10:23:27.208Z,1.10
2022-12-08T10:26:01.549Z,1.10
2022-12-08T10:28:29.612Z,1.30
2022-12-08T10:30:57.793Z,1.50
2022-12-08T10:33:26.185Z,1.47
2022-12-08T10:35:56.304Z,1.57
2022-12-08T10:38:27.742Z,1.30
2022-12-08T10:41:05.404Z,1.73
2022-12-08T10:43:34.535Z,1.70
2022-12-08T10:46:14.148Z,1.93
2022-12-08T10:48:53.855Z,2.07
2022-12-08T10:51:29.639Z,2.13
2022-12-08T10:53:58.123Z,2.40
2022-12-08T10:56:29.614Z,2.43
2022-12-08T10:59:15.419Z,2.90
2022-12-08T11:01:48.844Z,2.60
2022-12-08T11:04:20.202Z,3.20
2022-12-08T11:06:50.102Z,2.97
2022-12-08T11:09:31.278Z,2.90
2022-12-08T11:12:01.904Z,2.00
2022-12-08T11:14:32.387Z,2.30
2022-12-08T11:17:06.584Z,2.80
2022-12-08T11:19:39.663Z,2.77
2022-12-08T11:22:23.010Z,3.17
2022-12-08T11:24:59.826Z,3.23
2022-12-08T11:27:29.288Z,2.60
2022-12-08T11:29:57.553Z,2.97
2022-12-08T11:32:25.837Z,2.70
2022-12-08T11:35:00.997Z,2.60
2022-12-08T11:37:35.134Z,2.80
2022-12-08T11:40:08.833Z,3.17
2022-12-08T11:42:46.632Z,2.43
2022-12-08T11:45:21.830Z,2.57
2022-12-08T11:47:59.301Z,3.60
2022-12-08T11:50:41.885Z,2.37
2022-12-08T11:53:18.256Z,2.67
2022-12-08T11:55:51.899Z,2.77
2022-12-08T11:58:26.245Z,2.20
2022-12-08T12:00:54.350Z,2.93
2022-12-08T12:03:30.050Z,2.80
2022-12-08T12:09:19.867Z,3.43
2022-12-08T12:12:16.675Z,3.30
2022-12-08T12:15:14.277Z,3.67
2022-12-08T12:17:47.879Z,3.80
2022-12-08T12:20:21.105Z,3.90
2022-12-08T12:22:55.016Z,3.80
2022-12-08T12:25:26.321Z,3.93
2022-12-08T12:27:58.776Z,3.50
2022-12-08T12:30:29.985Z,3.43
2022-12-08T12:33:01.449Z,2.73
2022-12-08T12:35:35.600Z,3.10
2022-12-08T12:38:28.197Z,3.17
2022-12-08T12:41:02.393Z,2.70
2022-12-08T12:43:33.918Z,2.77
2022-12-08T12:46:35.711Z,2.47
2022-12-08T12:49:40.891Z,2.17
2022-12-08T12:52:43.775Z,2.13
2022-12-08T12:55:49.412Z,2.43
2022-12-08T12:58:34.310Z,1.70
2022-12-08T13:01:39.704Z,1.77
2022-12-08T13:04:10.563Z,1.83
2022-12-08T13:06:42.952Z,1.30
2022-12-08T13:09:28.712Z,1.67
2022-12-08T13:12:00.684Z,1.63
2022-12-08T13:14:31.321Z,1.73
2022-12-08T13:17:01.659Z,1.73
2022-12-08T13:19:33.668Z,1.80
2022-12-08T13:22:02.400Z,1.43
2022-12-08T13:24:36.320Z,1.70
2022-12-08T13:27:37.524Z,2.20
2022-12-08T13:30:44.167Z,1.67
2022-12-08T13:33:18.424Z,1.50
2022-12-08T13:36:09.150Z,1.17
2022-12-08T13:38:39.972Z,1.33
2022-12-08T13:41:18.244Z,1.33
2022-12-08T13:44:20.173Z,0.87
2022-12-08T13:56:51.346Z,1.67
2022-12-08T13:58:27.335Z,1.47
2022-12-08T14:00:58.877Z,1.77
2022-12-08T14:03:27.292Z,1.70
2022-12-08T14:06:12.297Z,2.30
2022-12-08T14:09:03.716Z,1.83
2022-12-08T14:11:37.560Z,1.70
2022-12-08T14:14:10.093Z,2.17
2022-12-08T14:16:40.207Z,1.70
2022-12-08T14:19:17.736Z,2.07
2022-12-08T14:21:49.008Z,2.10
2022-12-08T14:24:17.111Z,1.77
2022-12-08T14:26:47.871Z,1.93
2022-12-08T14:29:37.783Z,1.90
2022-12-08T14:32:07.035Z,2.03
2022-12-08T14:34:40.542Z,2.20
2022-12-08T14:37:14.165Z,2.53
2022-12-08T14:39:42.491Z,2.70
2022-12-08T14:42:22.561Z,2.90
2022-12-08T14:45:01.489Z,2.87
2022-12-08T14:47:34.753Z,3.57
2022-12-08T14:50:05.172Z,3.70
2022-12-08T14:52:33.419Z,3.50
2022-12-08T14:55:01.775Z,3.13
2022-12-08T14:57:36.317Z,3.23
2022-12-08T15:00:23.123Z,4.00
2022-12-08T15:02:51.256Z,3.97
2022-12-08T15:05:21.886Z,4.40
2022-12-08T15:07:52.553Z,4.30
2022-12-08T15:10:24.246Z,4.17
2022-12-08T15:13:00.933Z,4.50
2022-12-08T15:15:31.549Z,4.50
2022-12-08T15:18:03.955Z,4.43
2022-12-08T15:20:41.573Z,4.50
2022-12-08T15:23:27.472Z,4.20
2022-12-08T15:25:56.777Z,3.97
2022-12-08T15:28:30.135Z,3.87
2022-12-08T15:31:00.422Z,3.50
2022-12-08T15:33:28.819Z,3.17
2022-12-08T15:35:56.889Z,3.57
2022-12-08T15:38:26.790Z,3.53
2022-12-08T15:40:55.614Z,4.17
2022-12-08T15:43:24.172Z,3.60
2022-12-08T15:46:01.162Z,4.30
2022-12-08T15:48:31.515Z,4.47
2022-12-08T15:51:00.257Z,5.83
2022-12-08T15:53:28.310Z,7.40
2022-12-08T15:58:59.920Z,7.67
2022-12-08T16:01:28.243Z,8.10
2022-12-08T16:09:39.426Z,6.10
2022-12-08T16:12:56.887Z,7.60
2022-12-08T16:18:07.521Z,6.97
2022-12-08T16:21:05.787Z,6.90
2022-12-08T16:23:42.162Z,7.20
2022-12-08T16:27:01.124Z,7.70
2022-12-08T16:29:01.703Z,6.87
2022-12-08T16:31:29.789Z,8.27
2022-12-08T16:33:57.859Z,7.67
2022-12-08T16:36:27.330Z,8.13
2022-12-08T16:38:55.389Z,7.00
2022-12-08T16:41:40.838Z,8.13
2022-12-08T16:44:08.871Z,8.07
2022-12-08T16:46:37.216Z,8.87
2022-12-08T17:01:04.923Z,13.33
2022-12-08T17:03:34.472Z,11.47
2022-12-08T17:06:02.502Z,11.10
2022-12-08T17:08:30.606Z,11.20
2022-12-08T17:11:08.566Z,11.70
2022-12-08T17:13:36.722Z,11.27
2022-12-08T17:16:10.347Z,12.93
2022-12-08T17:18:38.758Z,11.70
2022-12-08T17:21:12.029Z,11.37
2022-12-08T17:23:40.201Z,12.50
2022-12-08T17:26:08.783Z,11.90
2022-12-08T17:28:59.367Z,11.20
2022-12-08T17:31:29.897Z,10.37
2022-12-08T17:33:59.652Z,10.27
2022-12-08T17:36:27.881Z,10.70
2022-12-08T17:38:56.217Z,9.83
2022-12-08T17:41:24.277Z,9.80
2022-12-08T17:43:52.666Z,10.30
2022-12-08T17:46:21.959Z,10.03
2022-12-08T17:48:51.613Z,8.60
2022-12-08T17:51:19.840Z,9.53
2022-12-08T17:53:47.886Z,8.90
2022-12-08T17:56:17.986Z,9.87
2022-12-08T17:58:49.874Z,9.80
2022-12-08T18:01:22.506Z,11.20
2022-12-08T18:03:52.402Z,10.83
2022-12-08T18:06:20.546Z,10.07
2022-12-08T18:08:48.685Z,10.30
2022-12-08T18:11:19.387Z,9.70
2022-12-08T18:13:48.294Z,9.93
2022-12-08T18:16:17.148Z,10.30
2022-12-08T18:18:45.375Z,9.40
2022-12-08T18:21:21.447Z,8.73
2022-12-08T18:23:51.821Z,11.00
2022-12-08T18:26:20.571Z,9.47
2022-12-08T18:28:48.631Z,10.53
2022-12-08T18:31:19.256Z,9.90
2022-12-08T18:33:48.821Z,11.70
2022-12-08T18:36:21.779Z,11.40
2022-12-08T18:38:50.784Z,12.33
2022-12-08T18:41:20.850Z,10.90
2022-12-08T18:43:48.874Z,8.63
2022-12-08T18:46:17.008Z,8.97
2022-12-08T18:48:48.290Z,8.00
2022-12-08T18:51:19.614Z,8.17
2022-12-08T18:53:48.325Z,8.30
2022-12-08T18:56:24.805Z,9.27
2022-12-08T18:58:52.966Z,7.93
2022-12-08T19:01:21.312Z,7.90
2022-12-08T19:06:40.637Z,7.23
2022-12-08T19:09:09.610Z,7.70
2022-12-08T19:11:37.801Z,6.73
2022-12-08T19:14:06.390Z,7.20
2022-12-08T19:16:34.579Z,8.50
2022-12-08T19:19:02.846Z,7.13
2022-12-08T19:21:31.001Z,7.37
2022-12-08T19:24:00.543Z,6.67
2022-12-08T19:26:29.417Z,7.93
2022-12-08T19:28:58.357Z,6.90
2022-12-08T19:31:26.861Z,7.77
2022-12-08T19:33:55.169Z,7.67
2022-12-08T19:36:24.051Z,9.03
2022-12-08T19:39:09.467Z,8.07
2022-12-08T19:41:56.611Z,9.03
2022-12-08T19:44:44.334Z,8.63
2022-12-08T19:47:12.678Z,8.73
2022-12-08T19:49:40.818Z,10.13
2022-12-08T19:52:08.940Z,9.30
2022-12-08T19:54:37.133Z,9.97
2022-12-08T19:57:06.702Z,10.10
2022-12-08T19:59:34.791Z,10.43
2022-12-08T20:02:03.023Z,10.27
2022-12-08T20:04:31.350Z,10.47
2022-12-08T20:06:59.432Z,10.57
2022-12-08T20:09:27.525Z,9.77
2022-12-08T20:11:55.717Z,11.33
2022-12-08T20:14:25.412Z,10.57
2022-12-08T20:16:53.627Z,11.33
2022-12-08T20:19:21.778Z,10.57
2022-12-08T20:21:49.912Z,11.10
2022-12-08T20:24:18.556Z,10.90
2022-12-08T20:26:46.733Z,10.57
2022-12-08T20:29:17.014Z,11.93
2022-12-08T20:31:46.884Z,11.10
2022-12-08T20:34:16.257Z,12.27
2022-12-08T20:36:44.339Z,11.83
2022-12-08T20:39:14.494Z,12.03
2022-12-08T20:41:43.090Z,13.33
2022-12-08T20:44:11.362Z,13.33
2022-12-08T20:46:42.714Z,17.53
2022-12-08T20:49:14.562Z,16.23
2022-12-08T20:51:44.449Z,15.40
2022-12-08T20:54:12.786Z,16.20
2022-12-08T20:56:46.614Z,17.60
2022-12-08T20:59:18.223Z,16.47
2022-12-08T21:01:46.492Z,16.83
2022-12-08T21:04:16.752Z,16.47
2022-12-08T21:06:45.171Z,16.53
2022-12-08T21:09:13.416Z,17.00
2022-12-08T21:11:41.614Z,17.00
2022-12-08T21:14:09.718Z,17.03
2022-12-08T21:16:39.273Z,16.47
2022-12-08T21:19:07.562Z,16.13
2022-12-08T21:21:37.120Z,14.83
2022-12-08T21:24:06.023Z,17.40
2022-12-08T21:26:34.183Z,14.70
2022-12-08T21:29:02.299Z,15.93
2022-12-08T21:31:31.947Z,17.07
2022-12-08T21:34:00.596Z,16.50
2022-12-08T21:36:28.959Z,15.47
2022-12-08T21:39:00.737Z,16.67
2022-12-08T21:41:46.426Z,14.83
2022-12-08T21:44:18.702Z,16.50
2022-12-08T21:46:46.949Z,16.37
2022-12-08T21:49:15.193Z,17.97
2022-12-08T21:51:43.251Z,16.50
2022-12-08T21:54:18.669Z,16.93
2022-12-08T21:56:48.022Z,18.43
2022-12-08T21:59:16.385Z,18.67
2022-12-08T22:01:45.175Z,17.73
2022-12-08T22:04:16.911Z,20.37
2022-12-08T22:06:45.224Z,18.77
2022-12-08T22:09:15.254Z,19.47
2022-12-08T22:11:44.567Z,20.30
2022-12-08T22:14:15.217Z,17.63
2022-12-08T22:16:44.273Z,18.03
2022-12-08T22:19:13.484Z,17.23
2022-12-08T22:21:42.028Z,16.07
2022-12-08T22:24:10.800Z,18.00
2022-12-08T22:26:40.251Z,18.47
2022-12-08T22:29:08.489Z,18.20
2022-12-08T22:31:37.196Z,18.73
2022-12-08T22:34:05.362Z,17.93
2022-12-08T22:36:33.777Z,18.90
2022-12-08T22:39:03.178Z,18.73
2022-12-08T22:41:31.224Z,17.93
2022-12-08T22:44:00.887Z,18.40
2022-12-08T22:46:29.062Z,18.87
2022-12-08T22:48:57.422Z,20.07
2022-12-08T22:51:25.628Z,19.87
2022-12-08T22:53:53.800Z,18.53
2022-12-08T22:56:22.177Z,18.87
2022-12-08T22:58:51.196Z,19.57
2022-12-08T23:01:29.057Z,19.03
2022-12-08T23:03:58.337Z,19.87
2022-12-08T23:06:27.917Z,20.43
2022-12-08T23:08:56.762Z,20.17
2022-12-08T23:11:27.180Z,19.80
2022-12-08T23:13:56.325Z,19.57
2022-12-08T23:16:25.950Z,19.20
2022-12-08T23:18:54.263Z,19.47
2022-12-08T23:21:22.492Z,17.93
2022-12-08T23:23:50.549Z,19.77
2022-12-08T23:26:22.955Z,19.40
2022-12-08T23:28:51.580Z,19.73
2022-12-08T23:31:20.260Z,20.17
2022-12-08T23:33:50.014Z,19.40
2022-12-08T23:36:19.409Z,20.13
2022-12-08T23:38:47.989Z,20.17
2022-12-08T23:41:17.336Z,19.50
2022-12-08T23:47:42.325Z,18.80
2022-12-08T23:50:12.410Z,20.00
2022-12-08T23:52:40.651Z,20.77
2022-12-08T23:55:09.532Z,21.03
2022-12-08T23:57:38.527Z,20.33
